Hamnavoe — VSTY7 — position and weather

sailwx.info

Track history (hours):
 
Tides and Currents Weather Stations Pressure Air Temp Water Temp Dewpoint Dewpoint Depression Visibility Wind Speed Wind Dir Waves Ship Positions

Hamnavoe

Operator: NorthLink Orkey & Shetland Ferries Ltd

Last reported at 2014-Dec-25 00:33 UTC. Time now 2014-Dec-25 00:47 UTC.
Position N 58°58' W 003°18'.

Length 112 m; draft 4.4 m.

Type: Ship. MMSI: 235449000.

Date/timePositionNaut miles runAvg speedWind from/ knotsBaromVisibWave heightAir tempDewpointWater temp
2014-Dec-25 00:33N 58°58' W 003°18'0 0.0
2014-Dec-24 23:33N 58°58' W 003°18'0 0.0
2014-Dec-24 22:33N 58°58' W 003°18'0 0.0
2014-Dec-24 21:33N 58°58' W 003°18'0 0.0
2014-Dec-24 20:33N 58°58' W 003°18'9 8.5
2014-Dec-24 19:33N 58°51' W 003°28'1514.0
2014-Dec-24 18:31N 58°37' W 003°32'1010.0
2014-Dec-24 17:33N 58°46' W 003°30'1313.3
2014-Dec-24 16:33N 58°58' W 003°18'0 0.0
2014-Dec-24 15:29N 58°58' W 003°18'0 0.0
2014-Dec-24 14:32N 58°58' W 003°18'0 0.0
2014-Dec-24 13:29N 58°58' W 003°18'0 0.0
2014-Dec-24 12:29N 58°58' W 003°18'0 0.0
2014-Dec-24 11:32N 58°58' W 003°18'0 0.0
2014-Dec-24 10:29N 58°58' W 003°18'7 7.6
2014-Dec-24 09:34N 58°53' W 003°27'1611.5
2014-Dec-24 08:08N 58°37' W 003°32'712.1
2014-Dec-24 07:33N 58°43' W 003°30'1514.9
2014-Dec-24 06:33N 58°57' W 003°18'1 0.9
2014-Dec-24 05:28N 58°58' W 003°18'0 0.0
2014-Dec-24 04:28N 58°58' W 003°18'0 0.0
2014-Dec-24 03:31N 58°58' W 003°18'0 0.0
2014-Dec-24 02:31N 58°58' W 003°18'0 0.0
2014-Dec-24 01:31N 58°58' W 003°18'0 0.0
2014-Dec-24 00:28N 58°58' W 003°18'0 0.0
2014-Dec-23 23:28N 58°58' W 003°18'0 0.0
2014-Dec-23 22:31N 58°58' W 003°18'0 0.0
2014-Dec-23 21:31N 58°58' W 003°18'0 0.2
2014-Dec-23 20:34N 58°58' W 003°18'1413.5
2014-Dec-23 19:31N 58°44' W 003°17'11 9.4
2014-Dec-23 18:23N 58°37' W 003°32'1215.0
2014-Dec-23 17:33N 58°49' W 003°30'1110.9
2014-Dec-23 16:33N 58°58' W 003°18'0 0.0
2014-Dec-23 15:31N 58°58' W 003°18'0 0.0
2014-Dec-23 14:28N 58°58' W 003°18'0 0.1
2014-Dec-23 13:34N 58°58' W 003°18'1312.9
2014-Dec-23 12:33N 58°45' W 003°14'1212.4
2014-Dec-23 11:33N 58°37' W 003°32'3 3.5
2014-Dec-23 10:33N 58°40' W 003°35'1615.5
2014-Dec-23 09:33N 58°55' W 003°28'6 5.9
2014-Dec-23 08:33N 58°58' W 003°18'0 0.0
2014-Dec-23 07:30N 58°58' W 003°18'0 0.0
2014-Dec-23 06:33N 58°58' W 003°18'0 0.0
2014-Dec-23 05:30N 58°58' W 003°18'0 0.0
2014-Dec-23 04:33N 58°58' W 003°18'0 0.0
2014-Dec-23 03:30N 58°58' W 003°18'0 0.0
2014-Dec-23 02:33N 58°58' W 003°18'0 0.0
2014-Dec-23 01:30N 58°58' W 003°18'0 0.0
2014-Dec-23 00:30N 58°58' W 003°18'0 0.0
2014-Dec-22 23:30N 58°58' W 003°18'0 0.0
2014-Dec-22 22:30N 58°58' W 003°18'0 0.0
2014-Dec-22 21:33N 58°58' W 003°18'4 4.0
2014-Dec-22 20:33N 58°55' W 003°13'1514.9
2014-Dec-22 19:34N 58°41' W 003°25'6 5.8
2014-Dec-22 18:32N 58°37' W 003°32'1515.2
2014-Dec-22 17:33N 58°52' W 003°31'9 9.2
2014-Dec-22 16:33N 58°58' W 003°18'0 0.0
2014-Dec-22 15:31N 58°58' W 003°18'0 0.0
2014-Dec-22 14:28N 58°58' W 003°18'0 0.0
2014-Dec-22 13:25N 58°58' W 003°18'0 0.0
2014-Dec-22 12:28N 58°58' W 003°18'0 0.0
2014-Dec-22 11:28N 58°58' W 003°18'0 0.1
2014-Dec-22 10:34N 58°58' W 003°18'1312.9
2014-Dec-22 09:33N 58°45' W 003°14'1312.3
2014-Dec-22 08:31N 58°37' W 003°32'1313.3
2014-Dec-22 07:33N 58°49' W 003°31'1010.4
2014-Dec-22 06:34N 58°57' W 003°18'0 0.4
2014-Dec-22 05:33N 58°58' W 003°18'0 0.0
2014-Dec-22 04:33N 58°58' W 003°18'0 0.0
2014-Dec-22 03:33N 58°58' W 003°18'0 0.0
2014-Dec-22 02:33N 58°58' W 003°18'0 0.0
2014-Dec-22 01:33N 58°58' W 003°18'0 0.0
2014-Dec-22 00:33N 58°58' W 003°18'0 0.0
2014-Dec-21 23:33N 58°58' W 003°18'0 0.0
2014-Dec-21 22:33N 58°58' W 003°18'0 0.0
2014-Dec-21 21:33N 58°58' W 003°18'0 0.0
2014-Dec-21 20:33N 58°58' W 003°18'1312.8
2014-Dec-21 19:33N 58°45' W 003°12'1413.9
2014-Dec-21 18:33N 58°37' W 003°32'1211.9
2014-Dec-21 17:33N 58°48' W 003°29'1111.2
2014-Dec-21 16:34N 58°58' W 003°18'0 0.0
2014-Dec-21 15:31N 58°58' W 003°18'0 0.0
2014-Dec-21 14:34N 58°58' W 003°18'0 0.0
2014-Dec-21 13:34N 58°58' W 003°18'1110.5
2014-Dec-21 12:33N 58°49' W 003°29'1212.4
2014-Dec-21 11:33N 58°37' W 003°32'0 0.1
2014-Dec-21 10:33N 58°37' W 003°32'1717.1
2014-Dec-21 09:33N 58°53' W 003°28'7 6.7
2014-Dec-21 08:32N 58°58' W 003°18'0 0.0
2014-Dec-21 07:32N 58°58' W 003°18'0 0.0
2014-Dec-21 06:32N 58°58' W 003°18'0 0.0
2014-Dec-21 05:32N 58°58' W 003°18'0 0.0
2014-Dec-21 04:32N 58°58' W 003°18'0 0.0
2014-Dec-21 03:32N 58°58' W 003°18'0 0.0
2014-Dec-21 02:29N 58°58' W 003°18'0 0.0
2014-Dec-21 01:32N 58°58' W 003°18'0 0.0
2014-Dec-21 00:32N 58°58' W 003°18'0 0.0
2014-Dec-20 23:32N 58°58' W 003°18'0 0.0
2014-Dec-20 22:32N 58°58' W 003°18'0 0.0
2014-Dec-20 21:32N 58°58' W 003°18'1 0.8
2014-Dec-20 20:33N 58°57' W 003°17'1414.0
2014-Dec-20 19:32N 58°43' W 003°20'9 9.2
2014-Dec-20 18:33N 58°37' W 003°32'1615.5
2014-Dec-20 17:33N 58°52' W 003°29'8 8.0
2014-Dec-20 16:33N 58°58' W 003°18'0 0.0
2014-Dec-20 15:33N 58°58' W 003°18'0 0.0
2014-Dec-20 14:33N 58°58' W 003°18'0 0.0
2014-Dec-20 13:33N 58°58' W 003°18'0 0.0
2014-Dec-20 12:33N 58°58' W 003°18'0 0.0
2014-Dec-20 11:15N 58°58' W 003°18'0 0.0
2014-Dec-20 10:33N 58°58' W 003°18'0 0.0
2014-Dec-20 09:33N 58°58' W 003°18'0 0.0
2014-Dec-20 08:33N 58°58' W 003°18'0 0.0
2014-Dec-20 07:33N 58°58' W 003°18'0 0.0
2014-Dec-20 06:33N 58°58' W 003°18'0 0.0
2014-Dec-20 05:33N 58°58' W 003°18'0 0.0
2014-Dec-20 04:30N 58°58' W 003°18'0 0.0
2014-Dec-20 03:33N 58°58' W 003°18'0 0.0
2014-Dec-20 02:33N 58°58' W 003°18'0 0.0
2014-Dec-20 01:33N 58°58' W 003°18'0 0.0
2014-Dec-20 00:33N 58°58' W 003°18'0 0.0
2014-Dec-19 23:33N 58°58' W 003°18'0 0.0
2014-Dec-19 22:33N 58°58' W 003°18'0 0.0
2014-Dec-19 21:33N 58°58' W 003°18'0 0.0
2014-Dec-19 20:33N 58°58' W 003°18'0 0.0
2014-Dec-19 19:33N 58°58' W 003°18'1212.1
2014-Dec-19 18:33N 58°47' W 003°08'1716.5
2014-Dec-19 17:33N 58°37' W 003°32'4 4.5
2014-Dec-19 16:33N 58°41' W 003°34'1615.8
2014-Dec-19 15:33N 58°56' W 003°27'5 4.4
2014-Dec-19 14:28N 58°58' W 003°18'0 0.0
2014-Dec-19 13:28N 58°58' W 003°18'0 0.0
2014-Dec-19 12:28N 58°58' W 003°18'0 0.0
2014-Dec-19 11:04N 58°58' W 003°18'510.2
2014-Dec-19 10:33N 58°53' W 003°12'1313.1
2014-Dec-19 09:32N 58°41' W 003°24'7 6.6
2014-Dec-19 08:33N 58°37' W 003°32'1514.8
2014-Dec-19 07:34N 58°51' W 003°30'9 8.9
2014-Dec-19 06:33N 58°58' W 003°18'0 0.0
2014-Dec-19 05:32N 58°58' W 003°18'0 0.0
2014-Dec-19 04:26N 58°58' W 003°18'0 0.0
2014-Dec-19 03:32N 58°58' W 003°18'0 0.0
2014-Dec-19 02:26N 58°58' W 003°18'0 0.0
2014-Dec-19 01:32N 58°58' W 003°18'0 0.0
2014-Dec-19 00:32N 58°58' W 003°18'0 0.0
2014-Dec-18 23:32N 58°58' W 003°18'0 0.0
2014-Dec-18 22:32N 58°58' W 003°18'0 0.0
2014-Dec-18 21:32N 58°58' W 003°18'0 0.4
2014-Dec-18 20:33N 58°57' W 003°18'1413.5
2014-Dec-18 19:32N 58°44' W 003°18'1010.4
2014-Dec-18 18:33N 58°37' W 003°32'1313.1
2014-Dec-18 17:33N 58°50' W 003°30'1010.3
2014-Dec-18 16:33N 58°58' W 003°18'0 0.0
2014-Dec-18 15:32N 58°58' W 003°18'0 0.0
2014-Dec-18 14:20N 58°58' W 003°18'0 0.0
2014-Dec-18 13:32N 58°58' W 003°18'0 0.0
2014-Dec-18 12:32N 58°58' W 003°18'0 0.0
2014-Dec-18 11:32N 58°58' W 003°18'0 0.0
2014-Dec-18 10:33N 58°58' W 003°18'1312.9
2014-Dec-18 09:33N 58°45' W 003°13'1311.6
2014-Dec-18 08:25N 58°37' W 003°32'910.5
2014-Dec-18 07:33N 58°46' W 003°30'1312.6
2014-Dec-18 06:33N 58°57' W 003°19'1 1.0
2014-Dec-18 05:32N 58°58' W 003°18'0 0.0
2014-Dec-18 04:32N 58°58' W 003°18'0 0.0
2014-Dec-18 03:32N 58°58' W 003°18'0 0.0
2014-Dec-18 02:32N 58°58' W 003°18'0 0.0
2014-Dec-18 01:32N 58°58' W 003°18'0 0.0
2014-Dec-18 00:32N 58°58' W 003°18'0 0.0
2014-Dec-17 23:32N 58°58' W 003°18'0 0.0
2014-Dec-17 22:32N 58°58' W 003°18'0 0.0
2014-Dec-17 21:32N 58°58' W 003°18'1 0.8
2014-Dec-17 20:33N 58°57' W 003°17'1413.6
2014-Dec-17 19:32N 58°43' W 003°18'1010.2
2014-Dec-17 18:33N 58°37' W 003°32'1211.9
2014-Dec-17 17:33N 58°48' W 003°29'11 8.9
2014-Dec-17 16:19N 58°58' W 003°18'0 0.0
2014-Dec-17 15:25N 58°58' W 003°18'0 0.0
2014-Dec-17 14:31N 58°58' W 003°18'0 0.0
2014-Dec-17 13:31N 58°58' W 003°18'0 0.0
2014-Dec-17 12:28N 58°58' W 003°18'0 0.0
2014-Dec-17 11:31N 58°58' W 003°18'0 0.0
2014-Dec-17 10:31N 58°58' W 003°18'8 8.8
2014-Dec-17 09:33N 58°52' W 003°29'1511.0
2014-Dec-17 08:11N 58°37' W 003°32'6 9.7
2014-Dec-17 07:33N 58°43' W 003°31'1615.7
2014-Dec-17 06:33N 58°57' W 003°18'1 1.0
2014-Dec-17 05:32N 58°58' W 003°18'0 0.0
2014-Dec-17 04:32N 58°58' W 003°18'0 0.0
2014-Dec-17 03:32N 58°58' W 003°18'0 0.0
2014-Dec-17 02:32N 58°58' W 003°18'0 0.0
2014-Dec-17 01:32N 58°58' W 003°18'0 0.0
2014-Dec-17 00:32N 58°58' W 003°18'0 0.0
2014-Dec-16 23:32N 58°58' W 003°18'0 0.0
2014-Dec-16 22:32N 58°58' W 003°18'0 0.0
2014-Dec-16 21:32N 58°58' W 003°18'2 1.8
2014-Dec-16 20:33N 58°57' W 003°20'1313.2
2014-Dec-16 19:33N 58°44' W 003°30'7 6.0
2014-Dec-16 18:23N 58°38' W 003°32'1417.1
2014-Dec-16 17:33N 58°52' W 003°29'8 8.2
2014-Dec-16 16:33N 58°58' W 003°18'0 0.0
2014-Dec-16 15:33N 58°58' W 003°18'0 0.0
2014-Dec-16 14:33N 58°58' W 003°18'0 0.0
2014-Dec-16 13:33N 58°58' W 003°18'0 0.0
2014-Dec-16 12:33N 58°58' W 003°18'0 0.0
2014-Dec-16 11:33N 58°58' W 003°18'1 1.2
2014-Dec-16 10:33N 58°57' W 003°16'1211.7
2014-Dec-16 09:33N 58°45' W 003°16'1211.7
2014-Dec-16 08:33N 58°37' W 003°32'9 8.9
2014-Dec-16 07:33N 58°45' W 003°30'1313.5
2014-Dec-16 06:33N 58°57' W 003°17'1 0.6
2014-Dec-16 05:28N 58°58' W 003°18'0 0.0
2014-Dec-16 04:29N 58°58' W 003°18'0 0.0
2014-Dec-16 03:31N 58°58' W 003°18'0 0.0
2014-Dec-16 01:07N 58°58' W 003°18'0 0.0
2014-Dec-16 00:07N 58°58' W 003°18'0 0.0
2014-Dec-15 23:31N 58°58' W 003°18'0 0.0
2014-Dec-15 22:31N 58°58' W 003°18'0 0.0
2014-Dec-15 21:31N 58°58' W 003°18'1 0.9
2014-Dec-15 20:33N 58°57' W 003°17'1414.0
2014-Dec-15 19:33N 58°45' W 003°30'8 8.1
2014-Dec-15 18:33N 58°37' W 003°32'1414.1
2014-Dec-15 17:33N 58°51' W 003°31'10 7.6
2014-Dec-15 16:16N 58°58' W 003°18'0 0.0
2014-Dec-15 15:28N 58°58' W 003°18'6 1.2
2014-Dec-15 10:33N 58°53' W 003°12'1110.8
2014-Dec-15 09:33N 58°44' W 003°24'9 8.7
2014-Dec-15 08:33N 58°37' W 003°32'1312.5
2014-Dec-15 07:32N 58°46' W 003°15'1212.4
2014-Dec-15 06:33N 58°58' W 003°18'0 0.0
2014-Dec-15 05:33N 58°58' W 003°18'0 0.0
2014-Dec-15 04:33N 58°58' W 003°18'0 0.0
2014-Dec-15 03:33N 58°58' W 003°18'0 0.0
2014-Dec-15 02:33N 58°58' W 003°18'0 0.0
2014-Dec-15 01:34N 58°58' W 003°18'0 0.0
2014-Dec-15 00:33N 58°58' W 003°18'  
Track history (hours):
 
Tides and Currents Weather Stations Pressure Air Temp Water Temp Dewpoint Dewpoint Depression Visibility Wind Speed Wind Dir Waves Ship Positions

Hamnavoe

Operator: NorthLink Orkey & Shetland Ferries Ltd

Last reported at 2014-Dec-25 00:33 UTC. Time now 2014-Dec-25 00:47 UTC.
Position N 58°58' W 003°18'.

Length 112 m; draft 4.4 m.

Type: Ship. MMSI: 235449000.

Date/timePositionNaut miles runAvg speedWind from/ knotsBaromVisibWave heightAir tempDewpointWater temp
2014-Dec-25 00:33N 58°58' W 003°18'0 0.0
2014-Dec-24 23:33N 58°58' W 003°18'0 0.0
2014-Dec-24 22:33N 58°58' W 003°18'0 0.0
2014-Dec-24 21:33N 58°58' W 003°18'0 0.0
2014-Dec-24 20:33N 58°58' W 003°18'9 8.5
2014-Dec-24 19:33N 58°51' W 003°28'1514.0
2014-Dec-24 18:31N 58°37' W 003°32'1010.0
2014-Dec-24 17:33N 58°46' W 003°30'1313.3
2014-Dec-24 16:33N 58°58' W 003°18'0 0.0
2014-Dec-24 15:29N 58°58' W 003°18'0 0.0
2014-Dec-24 14:32N 58°58' W 003°18'0 0.0
2014-Dec-24 13:29N 58°58' W 003°18'0 0.0
2014-Dec-24 12:29N 58°58' W 003°18'0 0.0
2014-Dec-24 11:32N 58°58' W 003°18'0 0.0
2014-Dec-24 10:29N 58°58' W 003°18'7 7.6
2014-Dec-24 09:34N 58°53' W 003°27'1611.5
2014-Dec-24 08:08N 58°37' W 003°32'712.1
2014-Dec-24 07:33N 58°43' W 003°30'1514.9
2014-Dec-24 06:33N 58°57' W 003°18'1 0.9
2014-Dec-24 05:28N 58°58' W 003°18'0 0.0
2014-Dec-24 04:28N 58°58' W 003°18'0 0.0
2014-Dec-24 03:31N 58°58' W 003°18'0 0.0
2014-Dec-24 02:31N 58°58' W 003°18'0 0.0
2014-Dec-24 01:31N 58°58' W 003°18'0 0.0
2014-Dec-24 00:28N 58°58' W 003°18'0 0.0
2014-Dec-23 23:28N 58°58' W 003°18'0 0.0
2014-Dec-23 22:31N 58°58' W 003°18'0 0.0
2014-Dec-23 21:31N 58°58' W 003°18'0 0.2
2014-Dec-23 20:34N 58°58' W 003°18'1413.5
2014-Dec-23 19:31N 58°44' W 003°17'11 9.4
2014-Dec-23 18:23N 58°37' W 003°32'1215.0
2014-Dec-23 17:33N 58°49' W 003°30'1110.9
2014-Dec-23 16:33N 58°58' W 003°18'0 0.0
2014-Dec-23 15:31N 58°58' W 003°18'0 0.0
2014-Dec-23 14:28N 58°58' W 003°18'0 0.1
2014-Dec-23 13:34N 58°58' W 003°18'1312.9
2014-Dec-23 12:33N 58°45' W 003°14'1212.4
2014-Dec-23 11:33N 58°37' W 003°32'3 3.5
2014-Dec-23 10:33N 58°40' W 003°35'1615.5
2014-Dec-23 09:33N 58°55' W 003°28'6 5.9
2014-Dec-23 08:33N 58°58' W 003°18'0 0.0
2014-Dec-23 07:30N 58°58' W 003°18'0 0.0
2014-Dec-23 06:33N 58°58' W 003°18'0 0.0
2014-Dec-23 05:30N 58°58' W 003°18'0 0.0
2014-Dec-23 04:33N 58°58' W 003°18'0 0.0
2014-Dec-23 03:30N 58°58' W 003°18'0 0.0
2014-Dec-23 02:33N 58°58' W 003°18'0 0.0
2014-Dec-23 01:30N 58°58' W 003°18'0 0.0
2014-Dec-23 00:30N 58°58' W 003°18'0 0.0
2014-Dec-22 23:30N 58°58' W 003°18'0 0.0
2014-Dec-22 22:30N 58°58' W 003°18'0 0.0
2014-Dec-22 21:33N 58°58' W 003°18'4 4.0
2014-Dec-22 20:33N 58°55' W 003°13'1514.9
2014-Dec-22 19:34N 58°41' W 003°25'6 5.8
2014-Dec-22 18:32N 58°37' W 003°32'1515.2
2014-Dec-22 17:33N 58°52' W 003°31'9 9.2
2014-Dec-22 16:33N 58°58' W 003°18'0 0.0
2014-Dec-22 15:31N 58°58' W 003°18'0 0.0
2014-Dec-22 14:28N 58°58' W 003°18'0 0.0
2014-Dec-22 13:25N 58°58' W 003°18'0 0.0
2014-Dec-22 12:28N 58°58' W 003°18'0 0.0
2014-Dec-22 11:28N 58°58' W 003°18'0 0.1
2014-Dec-22 10:34N 58°58' W 003°18'1312.9
2014-Dec-22 09:33N 58°45' W 003°14'1312.3
2014-Dec-22 08:31N 58°37' W 003°32'1313.3
2014-Dec-22 07:33N 58°49' W 003°31'1010.4
2014-Dec-22 06:34N 58°57' W 003°18'0 0.4
2014-Dec-22 05:33N 58°58' W 003°18'0 0.0
2014-Dec-22 04:33N 58°58' W 003°18'0 0.0
2014-Dec-22 03:33N 58°58' W 003°18'0 0.0
2014-Dec-22 02:33N 58°58' W 003°18'0 0.0
2014-Dec-22 01:33N 58°58' W 003°18'0 0.0
2014-Dec-22 00:33N 58°58' W 003°18'0 0.0
2014-Dec-21 23:33N 58°58' W 003°18'0 0.0
2014-Dec-21 22:33N 58°58' W 003°18'0 0.0
2014-Dec-21 21:33N 58°58' W 003°18'0 0.0
2014-Dec-21 20:33N 58°58' W 003°18'1312.8
2014-Dec-21 19:33N 58°45' W 003°12'1413.9
2014-Dec-21 18:33N 58°37' W 003°32'1211.9
2014-Dec-21 17:33N 58°48' W 003°29'1111.2
2014-Dec-21 16:34N 58°58' W 003°18'0 0.0
2014-Dec-21 15:31N 58°58' W 003°18'0 0.0
2014-Dec-21 14:34N 58°58' W 003°18'0 0.0
2014-Dec-21 13:34N 58°58' W 003°18'1110.5
2014-Dec-21 12:33N 58°49' W 003°29'1212.4
2014-Dec-21 11:33N 58°37' W 003°32'0 0.1
2014-Dec-21 10:33N 58°37' W 003°32'1717.1
2014-Dec-21 09:33N 58°53' W 003°28'7 6.7
2014-Dec-21 08:32N 58°58' W 003°18'0 0.0
2014-Dec-21 07:32N 58°58' W 003°18'0 0.0
2014-Dec-21 06:32N 58°58' W 003°18'0 0.0
2014-Dec-21 05:32N 58°58' W 003°18'0 0.0
2014-Dec-21 04:32N 58°58' W 003°18'0 0.0
2014-Dec-21 03:32N 58°58' W 003°18'0 0.0
2014-Dec-21 02:29N 58°58' W 003°18'0 0.0
2014-Dec-21 01:32N 58°58' W 003°18'0 0.0
2014-Dec-21 00:32N 58°58' W 003°18'0 0.0
2014-Dec-20 23:32N 58°58' W 003°18'0 0.0
2014-Dec-20 22:32N 58°58' W 003°18'0 0.0
2014-Dec-20 21:32N 58°58' W 003°18'1 0.8
2014-Dec-20 20:33N 58°57' W 003°17'1414.0
2014-Dec-20 19:32N 58°43' W 003°20'9 9.2
2014-Dec-20 18:33N 58°37' W 003°32'1615.5
2014-Dec-20 17:33N 58°52' W 003°29'8 8.0
2014-Dec-20 16:33N 58°58' W 003°18'0 0.0
2014-Dec-20 15:33N 58°58' W 003°18'0 0.0
2014-Dec-20 14:33N 58°58' W 003°18'0 0.0
2014-Dec-20 13:33N 58°58' W 003°18'0 0.0
2014-Dec-20 12:33N 58°58' W 003°18'0 0.0
2014-Dec-20 11:15N 58°58' W 003°18'0 0.0
2014-Dec-20 10:33N 58°58' W 003°18'0 0.0
2014-Dec-20 09:33N 58°58' W 003°18'0 0.0
2014-Dec-20 08:33N 58°58' W 003°18'0 0.0
2014-Dec-20 07:33N 58°58' W 003°18'0 0.0
2014-Dec-20 06:33N 58°58' W 003°18'0 0.0
2014-Dec-20 05:33N 58°58' W 003°18'0 0.0
2014-Dec-20 04:30N 58°58' W 003°18'0 0.0
2014-Dec-20 03:33N 58°58' W 003°18'0 0.0
2014-Dec-20 02:33N 58°58' W 003°18'0 0.0
2014-Dec-20 01:33N 58°58' W 003°18'0 0.0
2014-Dec-20 00:33N 58°58' W 003°18'0 0.0
2014-Dec-19 23:33N 58°58' W 003°18'0 0.0
2014-Dec-19 22:33N 58°58' W 003°18'0 0.0
2014-Dec-19 21:33N 58°58' W 003°18'0 0.0
2014-Dec-19 20:33N 58°58' W 003°18'0 0.0
2014-Dec-19 19:33N 58°58' W 003°18'1212.1
2014-Dec-19 18:33N 58°47' W 003°08'1716.5
2014-Dec-19 17:33N 58°37' W 003°32'4 4.5
2014-Dec-19 16:33N 58°41' W 003°34'1615.8
2014-Dec-19 15:33N 58°56' W 003°27'5 4.4
2014-Dec-19 14:28N 58°58' W 003°18'0 0.0
2014-Dec-19 13:28N 58°58' W 003°18'0 0.0
2014-Dec-19 12:28N 58°58' W 003°18'0 0.0
2014-Dec-19 11:04N 58°58' W 003°18'510.2
2014-Dec-19 10:33N 58°53' W 003°12'1313.1
2014-Dec-19 09:32N 58°41' W 003°24'7 6.6
2014-Dec-19 08:33N 58°37' W 003°32'1514.8
2014-Dec-19 07:34N 58°51' W 003°30'9 8.9
2014-Dec-19 06:33N 58°58' W 003°18'0 0.0
2014-Dec-19 05:32N 58°58' W 003°18'0 0.0
2014-Dec-19 04:26N 58°58' W 003°18'0 0.0
2014-Dec-19 03:32N 58°58' W 003°18'0 0.0
2014-Dec-19 02:26N 58°58' W 003°18'0 0.0
2014-Dec-19 01:32N 58°58' W 003°18'0 0.0
2014-Dec-19 00:32N 58°58' W 003°18'0 0.0
2014-Dec-18 23:32N 58°58' W 003°18'0 0.0
2014-Dec-18 22:32N 58°58' W 003°18'0 0.0
2014-Dec-18 21:32N 58°58' W 003°18'0 0.4
2014-Dec-18 20:33N 58°57' W 003°18'1413.5
2014-Dec-18 19:32N 58°44' W 003°18'1010.4
2014-Dec-18 18:33N 58°37' W 003°32'1313.1
2014-Dec-18 17:33N 58°50' W 003°30'1010.3
2014-Dec-18 16:33N 58°58' W 003°18'0 0.0
2014-Dec-18 15:32N 58°58' W 003°18'0 0.0
2014-Dec-18 14:20N 58°58' W 003°18'0 0.0
2014-Dec-18 13:32N 58°58' W 003°18'0 0.0
2014-Dec-18 12:32N 58°58' W 003°18'0 0.0
2014-Dec-18 11:32N 58°58' W 003°18'0 0.0
2014-Dec-18 10:33N 58°58' W 003°18'1312.9
2014-Dec-18 09:33N 58°45' W 003°13'1311.6
2014-Dec-18 08:25N 58°37' W 003°32'910.5
2014-Dec-18 07:33N 58°46' W 003°30'1312.6
2014-Dec-18 06:33N 58°57' W 003°19'1 1.0
2014-Dec-18 05:32N 58°58' W 003°18'0 0.0
2014-Dec-18 04:32N 58°58' W 003°18'0 0.0
2014-Dec-18 03:32N 58°58' W 003°18'0 0.0
2014-Dec-18 02:32N 58°58' W 003°18'0 0.0
2014-Dec-18 01:32N 58°58' W 003°18'0 0.0
2014-Dec-18 00:32N 58°58' W 003°18'0 0.0
2014-Dec-17 23:32N 58°58' W 003°18'0 0.0
2014-Dec-17 22:32N 58°58' W 003°18'0 0.0
2014-Dec-17 21:32N 58°58' W 003°18'1 0.8
2014-Dec-17 20:33N 58°57' W 003°17'1413.6
2014-Dec-17 19:32N 58°43' W 003°18'1010.2
2014-Dec-17 18:33N 58°37' W 003°32'1211.9
2014-Dec-17 17:33N 58°48' W 003°29'11 8.9
2014-Dec-17 16:19N 58°58' W 003°18'0 0.0
2014-Dec-17 15:25N 58°58' W 003°18'0 0.0
2014-Dec-17 14:31N 58°58' W 003°18'0 0.0
2014-Dec-17 13:31N 58°58' W 003°18'0 0.0
2014-Dec-17 12:28N 58°58' W 003°18'0 0.0
2014-Dec-17 11:31N 58°58' W 003°18'0 0.0
2014-Dec-17 10:31N 58°58' W 003°18'8 8.8
2014-Dec-17 09:33N 58°52' W 003°29'1511.0
2014-Dec-17 08:11N 58°37' W 003°32'6 9.7
2014-Dec-17 07:33N 58°43' W 003°31'1615.7
2014-Dec-17 06:33N 58°57' W 003°18'1 1.0
2014-Dec-17 05:32N 58°58' W 003°18'0 0.0
2014-Dec-17 04:32N 58°58' W 003°18'0 0.0
2014-Dec-17 03:32N 58°58' W 003°18'0 0.0
2014-Dec-17 02:32N 58°58' W 003°18'0 0.0
2014-Dec-17 01:32N 58°58' W 003°18'0 0.0
2014-Dec-17 00:32N 58°58' W 003°18'0 0.0
2014-Dec-16 23:32N 58°58' W 003°18'0 0.0
2014-Dec-16 22:32N 58°58' W 003°18'0 0.0
2014-Dec-16 21:32N 58°58' W 003°18'2 1.8
2014-Dec-16 20:33N 58°57' W 003°20'1313.2
2014-Dec-16 19:33N 58°44' W 003°30'7 6.0
2014-Dec-16 18:23N 58°38' W 003°32'1417.1
2014-Dec-16 17:33N 58°52' W 003°29'8 8.2
2014-Dec-16 16:33N 58°58' W 003°18'0 0.0
2014-Dec-16 15:33N 58°58' W 003°18'0 0.0
2014-Dec-16 14:33N 58°58' W 003°18'0 0.0
2014-Dec-16 13:33N 58°58' W 003°18'0 0.0
2014-Dec-16 12:33N 58°58' W 003°18'0 0.0
2014-Dec-16 11:33N 58°58' W 003°18'1 1.2
2014-Dec-16 10:33N 58°57' W 003°16'1211.7
2014-Dec-16 09:33N 58°45' W 003°16'1211.7
2014-Dec-16 08:33N 58°37' W 003°32'9 8.9
2014-Dec-16 07:33N 58°45' W 003°30'1313.5
2014-Dec-16 06:33N 58°57' W 003°17'1 0.6
2014-Dec-16 05:28N 58°58' W 003°18'0 0.0
2014-Dec-16 04:29N 58°58' W 003°18'0 0.0
2014-Dec-16 03:31N 58°58' W 003°18'0 0.0
2014-Dec-16 01:07N 58°58' W 003°18'0 0.0
2014-Dec-16 00:07N 58°58' W 003°18'0 0.0
2014-Dec-15 23:31N 58°58' W 003°18'0 0.0
2014-Dec-15 22:31N 58°58' W 003°18'0 0.0
2014-Dec-15 21:31N 58°58' W 003°18'1 0.9
2014-Dec-15 20:33N 58°57' W 003°17'1414.0
2014-Dec-15 19:33N 58°45' W 003°30'8 8.1
2014-Dec-15 18:33N 58°37' W 003°32'1414.1
2014-Dec-15 17:33N 58°51' W 003°31'10 7.6
2014-Dec-15 16:16N 58°58' W 003°18'0 0.0
2014-Dec-15 15:28N 58°58' W 003°18'6 1.2
2014-Dec-15 10:33N 58°53' W 003°12'1110.8
2014-Dec-15 09:33N 58°44' W 003°24'9 8.7
2014-Dec-15 08:33N 58°37' W 003°32'1312.5
2014-Dec-15 07:32N 58°46' W 003°15'1212.4
2014-Dec-15 06:33N 58°58' W 003°18'0 0.0
2014-Dec-15 05:33N 58°58' W 003°18'0 0.0
2014-Dec-15 04:33N 58°58' W 003°18'0 0.0
2014-Dec-15 03:33N 58°58' W 003°18'0 0.0
2014-Dec-15 02:33N 58°58' W 003°18'0 0.0
2014-Dec-15 01:34N 58°58' W 003°18'0 0.0
2014-Dec-15 00:33N 58°58' W 003°18'  

Dump ship's entire track history